RS-0001 weather

Bela Crkva Airport
Bela Crkva, South Banat, Serbia

Public forecast

Using degrees Celsius for public forecast. Weather courtesy of forecast.io.

METAR (pilot weather report)

Closest report is Vršac International Airport, 13.6 nm (25.1 km) N. Retrieved 2019/06/24 21:30 UTC (0 seconds ago):

LYVR 242130Z 04004KT CAVOK 22/20 Q1019 NOSIG

TAF (pilot weather forecast)

Closest forecast is Vršac International Airport, 13.6 nm (25.1 km) N. Retrieved 2019/06/24 18:00 UTC (3 hours ago):

TAF LYVR 241700Z 2418/2518 02005KT 9999 SCT035 TX29/2513Z TN17/2503Z TEMPO 2502/2505 1500 BR BKN005 PROB40 TEMPO 2514/2518 VRB15KT 4000 TSRA SCT027CB SCT033